Estestar — 3ECR8 — position and weather

sailwx.info

Track history (hours):
 
Tides and Currents Weather Stations Pressure Air Temp Water Temp Dewpoint Dewpoint Depression Visibility Wind Speed Wind Dir Waves Ship Positions

Estestar

Last reported at 2015-Jun-30 07:10 UTC. Time now 2015-Jul-04 10:04 UTC.
Position N 41°40' W 008°53'.

Length 133 m; draft 6.8 m.

Type: Cargo ship. MMSI: 371448000.

Date/timePositionNaut miles runAvg speedWind from/ knotsBaromVisibWave heightAir tempDewpointWater temp
2015-Jun-30 07:10N 41°40' W 008°53'0 0.0
2015-Jun-30 06:31N 41°40' W 008°53'0 0.0
2015-Jun-30 05:22N 41°40' W 008°53'0 0.0
2015-Jun-30 04:28N 41°40' W 008°53'0 0.0
2015-Jun-30 02:07N 41°40' W 008°53'0 0.0
2015-Jun-30 01:31N 41°40' W 008°53'0 0.0
2015-Jun-30 00:31N 41°40' W 008°53'0 0.0
2015-Jun-29 23:31N 41°40' W 008°53'0 0.1
2015-Jun-29 22:31N 41°40' W 008°53'0 0.0
2015-Jun-29 21:31N 41°40' W 008°53'0 0.0
2015-Jun-29 20:31N 41°40' W 008°53'0 0.1
2015-Jun-29 19:31N 41°40' W 008°53'0 0.0
2015-Jun-29 18:10N 41°40' W 008°53'0 0.0
2015-Jun-29 17:28N 41°40' W 008°53'0 0.0
2015-Jun-29 11:25N 41°40' W 008°53'0 0.0
2015-Jun-29 03:31N 41°40' W 008°53'0 0.0
2015-Jun-29 01:31N 41°40' W 008°53'0 0.0
2015-Jun-28 23:28N 41°40' W 008°53'0 0.5
2015-Jun-28 22:33N 41°40' W 008°54'9 9.2
2015-Jun-28 21:34N 41°46' W 009°03'10 9.8
2015-Jun-28 20:33N 41°53' W 009°12'11 9.7
2015-Jun-28 19:26N 42°02' W 009°22'9 9.8
2015-Jun-28 18:33N 42°08' W 009°29'1010.1
2015-Jun-28 17:33N 42°16' W 009°38'1010.0
2015-Jun-28 16:33N 42°23' W 009°48'1010.1
2015-Jun-28 15:33N 42°30' W 009°56'10 9.5
2015-Jun-28 14:32N 42°38' W 010°05'24 9.6
2015-Jun-28 12:04N 43°02' W 010°07'51 8.7
2015-Jun-28 06:08N 43°42' W 009°23'9 9.3
2015-Jun-28 05:09N 43°47' W 009°12'6 9.3
2015-Jun-28 04:32N 43°49' W 009°04'9 9.1
2015-Jun-28 03:32N 43°50' W 008°52'121 9.3
2015-Jun-27 14:33N 43°39' W 006°05'15 0.8
2015-Jun-26 20:18N 43°41' W 006°25'208 8.0
2015-Jun-25 18:26N 41°17' W 009°48'910.0
2015-Jun-25 17:32N 41°08' W 009°48'10510.4
2015-Jun-25 07:31N 39°24' W 009°50'1010.2
2015-Jun-25 06:33N 39°14' W 009°50'10 9.9
2015-Jun-25 05:33N 39°04' W 009°50'1010.0
2015-Jun-25 04:33N 38°54' W 009°50'1010.0
2015-Jun-25 03:33N 38°44' W 009°51'10 9.9
2015-Jun-25 02:33N 38°34' W 009°48'10 9.7
2015-Jun-25 01:33N 38°25' W 009°45'9 9.4
2015-Jun-25 00:33N 38°16' W 009°43'9 9.0
2015-Jun-24 23:33N 38°07' W 009°40'9 8.9
2015-Jun-24 22:33N 37°58' W 009°38'9 9.0
2015-Jun-24 21:33N 37°49' W 009°36'9 9.4
2015-Jun-24 20:33N 37°40' W 009°33'10 9.6
2015-Jun-24 19:31N 37°30' W 009°30'57 9.2
2015-Jun-24 13:20N 36°41' W 008°55'10 9.8
2015-Jun-24 12:18N 36°38' W 008°44'7 9.9
2015-Jun-24 11:33N 36°35' W 008°35'149 9.3
2015-Jun-23 19:33N 35°58' W 005°36'4 7.1
2015-Jun-23 19:02N 35°59' W 005°32'  
2015-Jun-21 14:05N 36°24' W 002°56'610.0
2015-Jun-21 13:26N 36°24' W 002°48'9 9.7
2015-Jun-21 12:33N 36°24' W 002°38'1010.2
2015-Jun-21 11:33N 36°25' W 002°25'1110.5
2015-Jun-21 10:33N 36°25' W 002°12'5510.2
2015-Jun-21 05:07N 36°37' W 001°04'610.1
2015-Jun-21 04:31N 36°38' W 000°57'1010.2
2015-Jun-21 03:33N 36°40' W 000°45'1510.4
2015-Jun-21 02:07N 36°42' W 000°27'610.7
2015-Jun-21 01:33N 36°43' W 000°19'1210.4
2015-Jun-21 00:26N 36°46' W 000°05'910.0
2015-Jun-20 23:33N 36°48' E 000°05'1110.6
2015-Jun-20 22:33N 36°50' E 000°18'1010.3
2015-Jun-20 21:33N 36°53' E 000°31'10 9.9
2015-Jun-20 20:33N 36°54' E 000°43'1010.0
2015-Jun-20 19:33N 36°56' E 000°55'1010.2
2015-Jun-20 18:33N 36°58' E 001°08'1110.5
2015-Jun-20 17:33N 36°60' E 001°21'1110.7
2015-Jun-20 16:33N 37°02' E 001°34'1110.5
2015-Jun-20 15:33N 37°04' E 001°47'1010.4
2015-Jun-20 14:33N 37°06' E 001°60'1110.8
2015-Jun-20 13:33N 37°09' E 002°13'1010.4
2015-Jun-20 12:33N 37°11' E 002°26'1010.4
2015-Jun-20 11:33N 37°13' E 002°38'3 3.3
2015-Jun-20 10:33N 37°13' E 002°34'9 9.1
2015-Jun-20 09:32N 37°12' E 002°23'  
Track history (hours):
 
Tides and Currents Weather Stations Pressure Air Temp Water Temp Dewpoint Dewpoint Depression Visibility Wind Speed Wind Dir Waves Ship Positions

Estestar

Last reported at 2015-Jun-30 07:10 UTC. Time now 2015-Jul-04 10:04 UTC.
Position N 41°40' W 008°53'.

Length 133 m; draft 6.8 m.

Type: Cargo ship. MMSI: 371448000.

Date/timePositionNaut miles runAvg speedWind from/ knotsBaromVisibWave heightAir tempDewpointWater temp
2015-Jun-30 07:10N 41°40' W 008°53'0 0.0
2015-Jun-30 06:31N 41°40' W 008°53'0 0.0
2015-Jun-30 05:22N 41°40' W 008°53'0 0.0
2015-Jun-30 04:28N 41°40' W 008°53'0 0.0
2015-Jun-30 02:07N 41°40' W 008°53'0 0.0
2015-Jun-30 01:31N 41°40' W 008°53'0 0.0
2015-Jun-30 00:31N 41°40' W 008°53'0 0.0
2015-Jun-29 23:31N 41°40' W 008°53'0 0.1
2015-Jun-29 22:31N 41°40' W 008°53'0 0.0
2015-Jun-29 21:31N 41°40' W 008°53'0 0.0
2015-Jun-29 20:31N 41°40' W 008°53'0 0.1
2015-Jun-29 19:31N 41°40' W 008°53'0 0.0
2015-Jun-29 18:10N 41°40' W 008°53'0 0.0
2015-Jun-29 17:28N 41°40' W 008°53'0 0.0
2015-Jun-29 11:25N 41°40' W 008°53'0 0.0
2015-Jun-29 03:31N 41°40' W 008°53'0 0.0
2015-Jun-29 01:31N 41°40' W 008°53'0 0.0
2015-Jun-28 23:28N 41°40' W 008°53'0 0.5
2015-Jun-28 22:33N 41°40' W 008°54'9 9.2
2015-Jun-28 21:34N 41°46' W 009°03'10 9.8
2015-Jun-28 20:33N 41°53' W 009°12'11 9.7
2015-Jun-28 19:26N 42°02' W 009°22'9 9.8
2015-Jun-28 18:33N 42°08' W 009°29'1010.1
2015-Jun-28 17:33N 42°16' W 009°38'1010.0
2015-Jun-28 16:33N 42°23' W 009°48'1010.1
2015-Jun-28 15:33N 42°30' W 009°56'10 9.5
2015-Jun-28 14:32N 42°38' W 010°05'24 9.6
2015-Jun-28 12:04N 43°02' W 010°07'51 8.7
2015-Jun-28 06:08N 43°42' W 009°23'9 9.3
2015-Jun-28 05:09N 43°47' W 009°12'6 9.3
2015-Jun-28 04:32N 43°49' W 009°04'9 9.1
2015-Jun-28 03:32N 43°50' W 008°52'121 9.3
2015-Jun-27 14:33N 43°39' W 006°05'15 0.8
2015-Jun-26 20:18N 43°41' W 006°25'208 8.0
2015-Jun-25 18:26N 41°17' W 009°48'910.0
2015-Jun-25 17:32N 41°08' W 009°48'10510.4
2015-Jun-25 07:31N 39°24' W 009°50'1010.2
2015-Jun-25 06:33N 39°14' W 009°50'10 9.9
2015-Jun-25 05:33N 39°04' W 009°50'1010.0
2015-Jun-25 04:33N 38°54' W 009°50'1010.0
2015-Jun-25 03:33N 38°44' W 009°51'10 9.9
2015-Jun-25 02:33N 38°34' W 009°48'10 9.7
2015-Jun-25 01:33N 38°25' W 009°45'9 9.4
2015-Jun-25 00:33N 38°16' W 009°43'9 9.0
2015-Jun-24 23:33N 38°07' W 009°40'9 8.9
2015-Jun-24 22:33N 37°58' W 009°38'9 9.0
2015-Jun-24 21:33N 37°49' W 009°36'9 9.4
2015-Jun-24 20:33N 37°40' W 009°33'10 9.6
2015-Jun-24 19:31N 37°30' W 009°30'57 9.2
2015-Jun-24 13:20N 36°41' W 008°55'10 9.8
2015-Jun-24 12:18N 36°38' W 008°44'7 9.9
2015-Jun-24 11:33N 36°35' W 008°35'149 9.3
2015-Jun-23 19:33N 35°58' W 005°36'4 7.1
2015-Jun-23 19:02N 35°59' W 005°32'  
2015-Jun-21 14:05N 36°24' W 002°56'610.0
2015-Jun-21 13:26N 36°24' W 002°48'9 9.7
2015-Jun-21 12:33N 36°24' W 002°38'1010.2
2015-Jun-21 11:33N 36°25' W 002°25'1110.5
2015-Jun-21 10:33N 36°25' W 002°12'5510.2
2015-Jun-21 05:07N 36°37' W 001°04'610.1
2015-Jun-21 04:31N 36°38' W 000°57'1010.2
2015-Jun-21 03:33N 36°40' W 000°45'1510.4
2015-Jun-21 02:07N 36°42' W 000°27'610.7
2015-Jun-21 01:33N 36°43' W 000°19'1210.4
2015-Jun-21 00:26N 36°46' W 000°05'910.0
2015-Jun-20 23:33N 36°48' E 000°05'1110.6
2015-Jun-20 22:33N 36°50' E 000°18'1010.3
2015-Jun-20 21:33N 36°53' E 000°31'10 9.9
2015-Jun-20 20:33N 36°54' E 000°43'1010.0
2015-Jun-20 19:33N 36°56' E 000°55'1010.2
2015-Jun-20 18:33N 36°58' E 001°08'1110.5
2015-Jun-20 17:33N 36°60' E 001°21'1110.7
2015-Jun-20 16:33N 37°02' E 001°34'1110.5
2015-Jun-20 15:33N 37°04' E 001°47'1010.4
2015-Jun-20 14:33N 37°06' E 001°60'1110.8
2015-Jun-20 13:33N 37°09' E 002°13'1010.4
2015-Jun-20 12:33N 37°11' E 002°26'1010.4
2015-Jun-20 11:33N 37°13' E 002°38'3 3.3
2015-Jun-20 10:33N 37°13' E 002°34'9 9.1
2015-Jun-20 09:32N 37°12' E 002°23'  

Dump ship's entire track history